Flight Track Log - Related Links

Times and Time Zones

All times are in EDT time to prevent confusion due to time zone crossing. See the N83WD flight status page for this flight to view local times or setup timezone preferences in your user account.


Time Position Orientation Groundspeed Altitude Reporting Facility
EDT Latitude Longitude Course Direction KTS MPH feet Rate Location/Type
Thu 10:34:32 AM 32.4872 -93.8006 259° West 156 180 1,600  Level Fort Worth Center
Thu 10:35:32 AM 32.4886 -93.8522 272° West 159 183 1,800 248 Climbing Fort Worth Center
Thu 10:36:33 AM 32.4900 -93.8989 272° West 144 166 2,100 344 Climbing Fort Worth Center
Thu 10:37:34 AM 32.4892 -93.9431 269° West 135 155 2,500 397 Climbing Fort Worth Center
Thu 10:38:34 AM 32.4944 -93.9872 278° West 139 160 2,900 446 Climbing Fort Worth Center
Thu 10:39:00 AM 32.4969 -94.0181 259° West  Level Estimated
Thu 10:39:35 AM 32.4978 -94.0339 275° West 141 162 3,400  Level Fort Worth Center
Thu 10:40:30 AM 32.5011 -94.0733 276° West 141 162 3,700 417 Climbing Fort Worth Center
Thu 10:41:30 AM 32.5106 -94.1197 284° West 146 168 4,200 496 Climbing Fort Worth Center
Thu 10:42:31 AM 32.5119 -94.1689 272° West 138 159 4,700 492 Climbing Fort Worth Center
Thu 10:44:00 AM 32.4786 -94.2125 228° Southwest  Level FlightAware Approximate
Thu 10:51:00 AM 32.4109 -94.4870 258° West  Level FlightAware Approximate
Thu 10:52:00 AM 32.4036 -94.5257 257° West  Level FlightAware Approximate
Thu 10:53:00 AM 32.3963 -94.5644 257° West  Level FlightAware Approximate
Thu 10:54:00 AM 32.3890 -94.6031 257° West  Level FlightAware Approximate
Thu 10:55:00 AM 32.3833 -94.6420 270° West  Level FlightAware Approximate
Thu 10:56:00 AM 32.3833 -94.6816 270° West  Level FlightAware Approximate
Thu 10:57:00 AM 32.3833 -94.7000 270° West  Level FlightAware Approximate
Thu 10:58:00 AM 32.3840 -94.7115 270° West  Level Estimated
Thu 10:59:00 AM 32.3840 -94.7115 270° West  Level Estimated
Thu 11:00:00 AM 32.3840 -94.7115 270° West  Level Estimated
Thu 11:01:00 AM 32.3840 -94.7115 270° West  Level Estimated
Thu 11:02:00 AM 32.3840 -94.7115 270° West  Level Estimated
Thu 11:03:00 AM 32.3840 -94.7115 270° West  Level Estimated
Thu 11:04:00 AM 32.3840 -94.7115 270° West  Level Estimated
Thu 11:05:00 AM 32.3840 -94.7115 270° West  Level Estimated
Thu 11:06:00 AM 32.3840 -94.7115 270° West  Level Estimated
Thu 11:07:00 AM 32.3840 -94.7115 270° West  Level Estimated
Thu 11:08:00 AM 32.3840 -94.7115 270° West  Level Estimated
Thu 11:09:00 AM 32.3840 -94.7115 270° West  Level Estimated
Thu 11:10:00 AM 32.3840 -94.7115 270° West  Level Estimated

Login

Don't have an account? Register now (free) for customized features, flight alerts, and more!